sensor_id;sensor_type;location;lat;lon;timestamp;pressure;altitude;pressure_sealevel;temperature;humidity
48668;BME280;34453;52.198;5.004;2023-03-20T00:00:29;102091.69;;;7.79;100.00
48668;BME280;34453;52.198;5.004;2023-03-20T00:02:55;102092.44;;;7.81;100.00
48668;BME280;34453;52.198;5.004;2023-03-20T00:05:22;102095.78;;;7.83;100.00
48668;BME280;34453;52.198;5.004;2023-03-20T00:07:49;102086.50;;;7.79;100.00
48668;BME280;34453;52.198;5.004;2023-03-20T00:10:16;102072.91;;;7.74;100.00
48668;BME280;34453;52.198;5.004;2023-03-20T00:12:42;102072.53;;;7.80;100.00
48668;BME280;34453;52.198;5.004;2023-03-20T00:15:24;102065.66;;;7.79;100.00
48668;BME280;34453;52.198;5.004;2023-03-20T00:17:50;102070.56;;;7.84;100.00
48668;BME280;34453;52.198;5.004;2023-03-20T00:20:16;102063.03;;;7.79;100.00
48668;BME280;34453;52.198;5.004;2023-03-20T00:22:43;102055.03;;;7.82;100.00
48668;BME280;34453;52.198;5.004;2023-03-20T00:25:16;102068.63;;;7.87;100.00
48668;BME280;34453;52.198;5.004;2023-03-20T00:27:43;102057.47;;;7.85;100.00
48668;BME280;34453;52.198;5.004;2023-03-20T00:30:17;102053.00;;;7.87;100.00
48668;BME280;34453;52.198;5.004;2023-03-20T00:32:44;102066.03;;;7.87;100.00
48668;BME280;34453;52.198;5.004;2023-03-20T00:35:42;102067.69;;;7.88;100.00
48668;BME280;34453;52.198;5.004;2023-03-20T00:38:07;102073.00;;;7.87;100.00
48668;BME280;34453;52.198;5.004;2023-03-20T00:40:33;102079.13;;;7.86;100.00
48668;BME280;34453;52.198;5.004;2023-03-20T00:43:00;102093.19;;;7.83;100.00
48668;BME280;34453;52.198;5.004;2023-03-20T00:45:30;102100.25;;;7.81;100.00
48668;BME280;34453;52.198;5.004;2023-03-20T00:47:56;102104.81;;;7.78;100.00
48668;BME280;34453;52.198;5.004;2023-03-20T00:50:25;102105.84;;;7.75;100.00
48668;BME280;34453;52.198;5.004;2023-03-20T00:52:52;102098.97;;;7.74;100.00
48668;BME280;34453;52.198;5.004;2023-03-20T00:55:19;102097.84;;;7.78;100.00
48668;BME280;34453;52.198;5.004;2023-03-20T00:57:48;102089.09;;;7.79;100.00
48668;BME280;34453;52.198;5.004;2023-03-20T01:02:58;102082.31;;;7.77;100.00
48668;BME280;34453;52.198;5.004;2023-03-20T01:05:25;102095.59;;;7.72;100.00
48668;BME280;34453;52.198;5.004;2023-03-20T01:07:51;102099.03;;;7.73;100.00
48668;BME280;34453;52.198;5.004;2023-03-20T01:10:17;102105.84;;;7.75;100.00
48668;BME280;34453;52.198;5.004;2023-03-20T01:12:43;102096.34;;;7.74;100.00
48668;BME280;34453;52.198;5.004;2023-03-20T01:17:44;102091.41;;;7.70;100.00
48668;BME280;34453;52.198;5.004;2023-03-20T01:20:28;102105.28;;;7.70;100.00
48668;BME280;34453;52.198;5.004;2023-03-20T01:22:54;102097.66;;;7.67;100.00
48668;BME280;34453;52.198;5.004;2023-03-20T01:25:20;102095.97;;;7.66;100.00
48668;BME280;34453;52.198;5.004;2023-03-20T01:27:49;102105.84;;;7.61;100.00
48668;BME280;34453;52.198;5.004;2023-03-20T01:30:18;102096.31;;;7.60;100.00
48668;BME280;34453;52.198;5.004;2023-03-20T01:32:44;102088.78;;;7.55;100.00
48668;BME280;34453;52.198;5.004;2023-03-20T01:35:13;102086.94;;;7.57;100.00
48668;BME280;34453;52.198;5.004;2023-03-20T01:37:39;102087.47;;;7.48;100.00
48668;BME280;34453;52.198;5.004;2023-03-20T01:40:14;102094.19;;;7.52;100.00
48668;BME280;34453;52.198;5.004;2023-03-20T01:42:41;102093.16;;;7.55;100.00
48668;BME280;34453;52.198;5.004;2023-03-20T01:45:16;102102.44;;;7.44;100.00
48668;BME280;34453;52.198;5.004;2023-03-20T01:47:43;102108.84;;;7.39;100.00
48668;BME280;34453;52.198;5.004;2023-03-20T01:52:49;102116.94;;;7.34;100.00
48668;BME280;34453;52.198;5.004;2023-03-20T01:55:16;102114.69;;;7.28;100.00
48668;BME280;34453;52.198;5.004;2023-03-20T01:57:42;102109.75;;;7.23;100.00
48668;BME280;34453;52.198;5.004;2023-03-20T02:00:11;102106.13;;;7.26;100.00
48668;BME280;34453;52.198;5.004;2023-03-20T02:02:38;102115.63;;;7.27;100.00
48668;BME280;34453;52.198;5.004;2023-03-20T02:05:09;102098.66;;;7.20;100.00
48668;BME280;34453;52.198;5.004;2023-03-20T02:07:36;102088.25;;;7.20;100.00
48668;BME280;34453;52.198;5.004;2023-03-20T02:10:05;102077.19;;;7.16;100.00
48668;BME280;34453;52.198;5.004;2023-03-20T02:12:33;102079.88;;;7.15;100.00
48668;BME280;34453;52.198;5.004;2023-03-20T02:14:59;102077.25;;;7.15;100.00
48668;BME280;34453;52.198;5.004;2023-03-20T02:17:25;102082.66;;;7.12;100.00
48668;BME280;34453;52.198;5.004;2023-03-20T02:25:06;102070.00;;;7.05;100.00
48668;BME280;34453;52.198;5.004;2023-03-20T02:41:47;102042.25;;;6.90;100.00
48668;BME280;34453;52.198;5.004;2023-03-20T02:44:22;102039.84;;;6.87;100.00
48668;BME280;34453;52.198;5.004;2023-03-20T02:47:02;102038.13;;;6.86;100.00
48668;BME280;34453;52.198;5.004;2023-03-20T02:55:27;102022.78;;;6.81;100.00
48668;BME280;34453;52.198;5.004;2023-03-20T03:01:12;102017.38;;;6.70;100.00
48668;BME280;34453;52.198;5.004;2023-03-20T03:03:37;102010.47;;;6.69;100.00
48668;BME280;34453;52.198;5.004;2023-03-20T03:08:44;102035.38;;;6.73;100.00
48668;BME280;34453;52.198;5.004;2023-03-20T03:11:12;102025.50;;;6.64;100.00
48668;BME280;34453;52.198;5.004;2023-03-20T03:13:43;102029.81;;;6.65;100.00
48668;BME280;34453;52.198;5.004;2023-03-20T03:16:13;102034.16;;;6.64;100.00
48668;BME280;34453;52.198;5.004;2023-03-20T03:18:41;102029.97;;;6.62;100.00
48668;BME280;34453;52.198;5.004;2023-03-20T03:21:09;102031.72;;;6.61;100.00
48668;BME280;34453;52.198;5.004;2023-03-20T03:23:47;102032.66;;;6.60;100.00
48668;BME280;34453;52.198;5.004;2023-03-20T03:26:26;102027.47;;;6.60;100.00
48668;BME280;34453;52.198;5.004;2023-03-20T03:28:59;102014.63;;;6.57;100.00
48668;BME280;34453;52.198;5.004;2023-03-20T03:31:26;102016.38;;;6.57;100.00
48668;BME280;34453;52.198;5.004;2023-03-20T03:33:55;102017.22;;;6.57;100.00
48668;BME280;34453;52.198;5.004;2023-03-20T03:44:47;101989.38;;;6.59;100.00
48668;BME280;34453;52.198;5.004;2023-03-20T03:47:38;101982.66;;;6.55;100.00
48668;BME280;34453;52.198;5.004;2023-03-20T03:52:37;101973.28;;;6.53;100.00
48668;BME280;34453;52.198;5.004;2023-03-20T03:55:07;101972.19;;;6.57;100.00
48668;BME280;34453;52.198;5.004;2023-03-20T03:57:40;101973.94;;;6.56;100.00
48668;BME280;34453;52.198;5.004;2023-03-20T04:00:06;101982.59;;;6.57;100.00
48668;BME280;34453;52.198;5.004;2023-03-20T04:02:33;101968.91;;;6.53;100.00
48668;BME280;34453;52.198;5.004;2023-03-20T04:05:01;101973.53;;;6.48;100.00
48668;BME280;34453;52.198;5.004;2023-03-20T04:07:27;101961.56;;;6.46;100.00
48668;BME280;34453;52.198;5.004;2023-03-20T04:09:53;101970.75;;;6.51;100.00
48668;BME280;34453;52.198;5.004;2023-03-20T04:12:38;101979.50;;;6.50;100.00
48668;BME280;34453;52.198;5.004;2023-03-20T04:15:04;101975.94;;;6.51;100.00
48668;BME280;34453;52.198;5.004;2023-03-20T04:17:30;101976.31;;;6.45;100.00
48668;BME280;34453;52.198;5.004;2023-03-20T04:19:55;101977.16;;;6.46;100.00
48668;BME280;34453;52.198;5.004;2023-03-20T04:22:21;101984.00;;;6.47;100.00
48668;BME280;34453;52.198;5.004;2023-03-20T04:24:47;101988.38;;;6.46;100.00
48668;BME280;34453;52.198;5.004;2023-03-20T04:27:12;101980.78;;;6.43;100.00
48668;BME280;34453;52.198;5.004;2023-03-20T04:29:37;101978.06;;;6.44;100.00
48668;BME280;34453;52.198;5.004;2023-03-20T04:32:03;101977.06;;;6.47;100.00
48668;BME280;34453;52.198;5.004;2023-03-20T04:34:28;101981.59;;;6.43;100.00
48668;BME280;34453;52.198;5.004;2023-03-20T04:36:54;101980.00;;;6.41;100.00
48668;BME280;34453;52.198;5.004;2023-03-20T04:39:20;101974.56;;;6.46;100.00
48668;BME280;34453;52.198;5.004;2023-03-20T04:41:45;101975.66;;;6.41;100.00
48668;BME280;34453;52.198;5.004;2023-03-20T04:44:11;101977.34;;;6.42;100.00
48668;BME280;34453;52.198;5.004;2023-03-20T04:46:37;101972.97;;;6.43;100.00
48668;BME280;34453;52.198;5.004;2023-03-20T04:49:03;101971.28;;;6.42;100.00
48668;BME280;34453;52.198;5.004;2023-03-20T04:51:28;101974.81;;;6.41;100.00
48668;BME280;34453;52.198;5.004;2023-03-20T04:53:54;101976.66;;;6.39;100.00
48668;BME280;34453;52.198;5.004;2023-03-20T04:56:19;101966.00;;;6.43;100.00
48668;BME280;34453;52.198;5.004;2023-03-20T04:58:44;101972.72;;;6.48;100.00
48668;BME280;34453;52.198;5.004;2023-03-20T05:01:10;101963.59;;;6.40;100.00
48668;BME280;34453;52.198;5.004;2023-03-20T05:03:35;101960.06;;;6.41;100.00
48668;BME280;34453;52.198;5.004;2023-03-20T05:06:01;101963.66;;;6.39;100.00
48668;BME280;34453;52.198;5.004;2023-03-20T05:08:26;101960.06;;;6.41;100.00
48668;BME280;34453;52.198;5.004;2023-03-20T05:10:52;101964.41;;;6.41;100.00
48668;BME280;34453;52.198;5.004;2023-03-20T05:13:17;101958.47;;;6.39;100.00
48668;BME280;34453;52.198;5.004;2023-03-20T05:15:43;101960.88;;;6.42;100.00
48668;BME280;34453;52.198;5.004;2023-03-20T05:18:08;101966.84;;;6.44;100.00
48668;BME280;34453;52.198;5.004;2023-03-20T05:20:34;101956.44;;;6.44;100.00
48668;BME280;34453;52.198;5.004;2023-03-20T05:23:01;101963.22;;;6.47;100.00
48668;BME280;34453;52.198;5.004;2023-03-20T05:25:26;101967.59;;;6.46;100.00
48668;BME280;34453;52.198;5.004;2023-03-20T05:27:51;101959.03;;;6.44;100.00
48668;BME280;34453;52.198;5.004;2023-03-20T05:30:17;101977.84;;;6.49;100.00
48668;BME280;34453;52.198;5.004;2023-03-20T05:32:44;101973.63;;;6.47;100.00
48668;BME280;34453;52.198;5.004;2023-03-20T05:35:10;101977.16;;;6.46;100.00
48668;BME280;34453;52.198;5.004;2023-03-20T05:37:36;101981.34;;;6.48;100.00
48668;BME280;34453;52.198;5.004;2023-03-20T05:40:02;101983.75;;;6.51;100.00
48668;BME280;34453;52.198;5.004;2023-03-20T05:42:28;101980.59;;;6.46;100.00
48668;BME280;34453;52.198;5.004;2023-03-20T05:44:53;101981.53;;;6.45;100.00
48668;BME280;34453;52.198;5.004;2023-03-20T05:47:18;101982.34;;;6.46;100.00
48668;BME280;34453;52.198;5.004;2023-03-20T05:49:44;101979.84;;;6.44;100.00
48668;BME280;34453;52.198;5.004;2023-03-20T05:52:09;101973.53;;;6.48;100.00
48668;BME280;34453;52.198;5.004;2023-03-20T05:54:35;101983.09;;;6.48;100.00
48668;BME280;34453;52.198;5.004;2023-03-20T05:57:00;101983.88;;;6.50;100.00
48668;BME280;34453;52.198;5.004;2023-03-20T05:59:26;101985.03;;;6.44;100.00
48668;BME280;34453;52.198;5.004;2023-03-20T06:01:51;101980.59;;;6.46;100.00
48668;BME280;34453;52.198;5.004;2023-03-20T06:04:16;101975.66;;;6.41;100.00
48668;BME280;34453;52.198;5.004;2023-03-20T06:06:42;101982.34;;;6.46;100.00
48668;BME280;34453;52.198;5.004;2023-03-20T06:09:07;101980.78;;;6.43;100.00
48668;BME280;34453;52.198;5.004;2023-03-20T06:11:33;101976.13;;;6.48;100.00
48668;BME280;34453;52.198;5.004;2023-03-20T06:13:58;101982.34;;;6.46;100.00
48668;BME280;34453;52.198;5.004;2023-03-20T06:16:23;101986.63;;;6.47;100.00
48668;BME280;34453;52.198;5.004;2023-03-20T06:18:49;101992.31;;;6.53;100.00
48668;BME280;34453;52.198;5.004;2023-03-20T06:21:16;101989.56;;;6.56;100.00
48668;BME280;34453;52.198;5.004;2023-03-20T06:23:41;101989.91;;;6.50;100.00
48668;BME280;34453;52.198;5.004;2023-03-20T06:26:06;101988.22;;;6.49;100.00
48668;BME280;34453;52.198;5.004;2023-03-20T06:28:32;101993.44;;;6.49;100.00
48668;BME280;34453;52.198;5.004;2023-03-20T06:30:57;101994.91;;;6.53;100.00
48668;BME280;34453;52.198;5.004;2023-03-20T06:33:23;101999.53;;;6.48;100.00
48668;BME280;34453;52.198;5.004;2023-03-20T06:35:48;101995.09;;;6.50;100.00
48668;BME280;34453;52.198;5.004;2023-03-20T06:38:14;101995.84;;;6.52;100.00
48668;BME280;34453;52.198;5.004;2023-03-20T06:40:39;101999.28;;;6.53;100.00
48668;BME280;34453;52.198;5.004;2023-03-20T06:43:06;102005.50;;;6.50;100.00
48668;BME280;34453;52.198;5.004;2023-03-20T06:45:31;101995.66;;;6.55;100.00
48668;BME280;34453;52.198;5.004;2023-03-20T06:47:57;102000.22;;;6.52;100.00
48668;BME280;34453;52.198;5.004;2023-03-20T06:50:23;101997.63;;;6.52;100.00
48668;BME280;34453;52.198;5.004;2023-03-20T06:52:48;102001.06;;;6.52;100.00
48668;BME280;34453;52.198;5.004;2023-03-20T06:55:14;101998.25;;;6.55;100.00
48668;BME280;34453;52.198;5.004;2023-03-20T06:57:39;102007.91;;;6.53;100.00
48668;BME280;34453;52.198;5.004;2023-03-20T07:00:06;101999.28;;;6.53;100.00
48668;BME280;34453;52.198;5.004;2023-03-20T07:02:32;102002.44;;;6.58;100.00
48668;BME280;34453;52.198;5.004;2023-03-20T07:05:00;102011.13;;;6.58;100.00
48668;BME280;34453;52.198;5.004;2023-03-20T07:07:25;102009.06;;;6.63;100.00
48668;BME280;34453;52.198;5.004;2023-03-20T07:09:50;102008.13;;;6.64;100.00
48668;BME280;34453;52.198;5.004;2023-03-20T07:12:18;102011.50;;;6.67;100.00
48668;BME280;34453;52.198;5.004;2023-03-20T07:14:50;102010.66;;;6.66;100.00
48668;BME280;34453;52.198;5.004;2023-03-20T07:17:15;102011.69;;;6.63;100.00
48668;BME280;34453;52.198;5.004;2023-03-20T07:19:41;102012.78;;;6.59;100.00
48668;BME280;34453;52.198;5.004;2023-03-20T07:22:08;102018.53;;;6.64;100.00
48668;BME280;34453;52.198;5.004;2023-03-20T07:24:43;102017.28;;;6.72;100.00
48668;BME280;34453;52.198;5.004;2023-03-20T07:27:09;102011.50;;;6.67;100.00
48668;BME280;34453;52.198;5.004;2023-03-20T07:29:34;102017.28;;;6.72;100.00
48668;BME280;34453;52.198;5.004;2023-03-20T07:32:02;102016.16;;;6.76;100.00
48668;BME280;34453;52.198;5.004;2023-03-20T07:34:30;102011.16;;;6.73;100.00
48668;BME280;34453;52.198;5.004;2023-03-20T07:36:56;102016.91;;;6.78;100.00
48668;BME280;34453;52.198;5.004;2023-03-20T07:39:22;102022.03;;;6.79;100.00
48668;BME280;34453;52.198;5.004;2023-03-20T07:41:48;102011.63;;;6.79;100.00
48668;BME280;34453;52.198;5.004;2023-03-20T07:44:15;102012.41;;;6.81;100.00
48668;BME280;34453;52.198;5.004;2023-03-20T07:46:44;102016.50;;;6.85;100.00
48668;BME280;34453;52.198;5.004;2023-03-20T07:49:12;102013.28;;;6.96;100.00
48668;BME280;34453;52.198;5.004;2023-03-20T07:51:38;102016.78;;;6.95;100.00
48668;BME280;34453;52.198;5.004;2023-03-20T07:54:04;102007.88;;;6.99;100.00
48668;BME280;34453;52.198;5.004;2023-03-20T07:56:30;102020.06;;;6.99;100.00
48668;BME280;34453;52.198;5.004;2023-03-20T07:58:57;102013.56;;;7.06;100.00
48668;BME280;34453;52.198;5.004;2023-03-20T08:01:22;102012.56;;;7.09;100.00
48668;BME280;34453;52.198;5.004;2023-03-20T08:03:48;102008.19;;;7.09;100.00
48668;BME280;34453;52.198;5.004;2023-03-20T08:06:14;102002.06;;;7.10;100.00
48668;BME280;34453;52.198;5.004;2023-03-20T08:08:41;102010.53;;;7.14;100.00
48668;BME280;34453;52.198;5.004;2023-03-20T08:11:07;102003.28;;;7.19;100.00
48668;BME280;34453;52.198;5.004;2023-03-20T08:13:33;102009.25;;;7.21;100.00
48668;BME280;34453;52.198;5.004;2023-03-20T08:15:58;102007.66;;;7.18;100.00
48668;BME280;34453;52.198;5.004;2023-03-20T08:18:24;102007.00;;;7.15;100.00
48668;BME280;34453;52.198;5.004;2023-03-20T08:20:49;102014.44;;;7.21;100.00
48668;BME280;34453;52.198;5.004;2023-03-20T08:23:16;102018.06;;;7.18;100.00
48668;BME280;34453;52.198;5.004;2023-03-20T08:25:47;102015.34;;;7.20;100.00
48668;BME280;34453;52.198;5.004;2023-03-20T08:28:14;102017.06;;;7.21;100.00
48668;BME280;34453;52.198;5.004;2023-03-20T08:30:42;102019.94;;;7.16;100.00
48668;BME280;34453;52.198;5.004;2023-03-20T08:33:09;102020.09;;;7.13;100.00
48668;BME280;34453;52.198;5.004;2023-03-20T08:35:36;102026.31;;;7.11;100.00
48668;BME280;34453;52.198;5.004;2023-03-20T08:38:02;102026.50;;;7.08;100.00
48668;BME280;34453;52.198;5.004;2023-03-20T08:40:28;102022.97;;;7.09;100.00
48668;BME280;34453;52.198;5.004;2023-03-20T08:42:54;102013.56;;;7.06;100.00
48668;BME280;34453;52.198;5.004;2023-03-20T08:45:24;102022.06;;;7.10;100.00
48668;BME280;34453;52.198;5.004;2023-03-20T08:47:51;102030.78;;;7.09;100.00
48668;BME280;34453;52.198;5.004;2023-03-20T08:50:18;102029.47;;;7.16;100.00
48668;BME280;34453;52.198;5.004;2023-03-20T08:52:43;102026.88;;;7.16;100.00
48668;BME280;34453;52.198;5.004;2023-03-20T08:55:12;102037.41;;;7.14;100.00
48668;BME280;34453;52.198;5.004;2023-03-20T08:57:39;102032.00;;;7.17;100.00
48668;BME280;34453;52.198;5.004;2023-03-20T09:00:08;102019.19;;;7.14;100.00
48668;BME280;34453;52.198;5.004;2023-03-20T09:02:35;102026.16;;;7.14;100.00
48668;BME280;34453;52.198;5.004;2023-03-20T09:05:01;102022.41;;;7.18;100.00
48668;BME280;34453;52.198;5.004;2023-03-20T09:07:27;102024.19;;;7.17;100.00
48668;BME280;34453;52.198;5.004;2023-03-20T09:09:54;102025.22;;;7.29;100.00
48668;BME280;34453;52.198;5.004;2023-03-20T09:12:21;102021.91;;;7.27;100.00
48668;BME280;34453;52.198;5.004;2023-03-20T09:14:46;102026.53;;;7.22;100.00
48668;BME280;34453;52.198;5.004;2023-03-20T09:17:12;102020.50;;;7.36;100.00
48668;BME280;34453;52.198;5.004;2023-03-20T09:19:37;102023.97;;;7.36;100.00
48668;BME280;34453;52.198;5.004;2023-03-20T09:22:04;102016.78;;;7.40;100.00
48668;BME280;34453;52.198;5.004;2023-03-20T09:24:30;102012.59;;;7.37;100.00
48668;BME280;34453;52.198;5.004;2023-03-20T09:26:58;101996.63;;;7.43;100.00
48668;BME280;34453;52.198;5.004;2023-03-20T09:29:26;102010.84;;;7.52;100.00
48668;BME280;34453;52.198;5.004;2023-03-20T09:31:54;102021.19;;;7.54;100.00
48668;BME280;34453;52.198;5.004;2023-03-20T09:34:20;102012.91;;;7.47;100.00
48668;BME280;34453;52.198;5.004;2023-03-20T09:36:46;102011.69;;;7.53;100.00
48668;BME280;34453;52.198;5.004;2023-03-20T09:39:11;102007.78;;;7.60;100.00
48668;BME280;34453;52.198;5.004;2023-03-20T09:41:38;101996.97;;;7.66;100.00
48668;BME280;34453;52.198;5.004;2023-03-20T09:49:52;102017.06;;;7.64;100.00
48668;BME280;34453;52.198;5.004;2023-03-20T09:52:45;102005.91;;;7.62;100.00
48668;BME280;34453;52.198;5.004;2023-03-20T09:55:19;102011.69;;;7.67;100.00
48668;BME280;34453;52.198;5.004;2023-03-20T09:57:50;102022.09;;;7.81;100.00
48668;BME280;34453;52.198;5.004;2023-03-20T10:00:22;102025.06;;;7.75;100.00
48668;BME280;34453;52.198;5.004;2023-03-20T10:02:52;102015.47;;;7.76;100.00
48668;BME280;34453;52.198;5.004;2023-03-20T10:08:01;102002.84;;;7.84;100.00
48668;BME280;34453;52.198;5.004;2023-03-20T10:16:12;102009.50;;;8.02;100.00
48668;BME280;34453;52.198;5.004;2023-03-20T10:19:31;102010.91;;;7.94;100.00
48668;BME280;34453;52.198;5.004;2023-03-20T10:22:22;101995.84;;;7.84;100.00
48668;BME280;34453;52.198;5.004;2023-03-20T10:25:05;102011.94;;;7.91;100.00
48668;BME280;34453;52.198;5.004;2023-03-20T10:36:17;102005.97;;;7.89;100.00
48668;BME280;34453;52.198;5.004;2023-03-20T10:39:05;102023.59;;;7.85;100.00
48668;BME280;34453;52.198;5.004;2023-03-20T10:41:37;102017.63;;;7.83;100.00
48668;BME280;34453;52.198;5.004;2023-03-20T10:44:05;102006.56;;;7.80;100.00
48668;BME280;34453;52.198;5.004;2023-03-20T10:46:41;101992.13;;;7.88;100.00
48668;BME280;34453;52.198;5.004;2023-03-20T10:52:01;101993.03;;;8.02;100.00
48668;BME280;34453;52.198;5.004;2023-03-20T10:54:39;101993.69;;;8.05;100.00
48668;BME280;34453;52.198;5.004;2023-03-20T10:57:14;101987.34;;;8.09;100.00
48668;BME280;34453;52.198;5.004;2023-03-20T10:59:49;101975.16;;;8.10;100.00
48668;BME280;34453;52.198;5.004;2023-03-20T11:02:18;101996.38;;;8.04;100.00
48668;BME280;34453;52.198;5.004;2023-03-20T11:04:44;101975.72;;;8.01;100.00
48668;BME280;34453;52.198;5.004;2023-03-20T11:07:26;101972.31;;;8.27;100.00
48668;BME280;34453;52.198;5.004;2023-03-20T11:10:08;101980.56;;;8.34;100.00
48668;BME280;34453;52.198;5.004;2023-03-20T11:12:45;101972.47;;;8.24;100.00
48668;BME280;34453;52.198;5.004;2023-03-20T11:15:27;101963.19;;;8.20;100.00
48668;BME280;34453;52.198;5.004;2023-03-20T11:18:01;101966.13;;;8.28;100.00
48668;BME280;34453;52.198;5.004;2023-03-20T11:20:34;101964.38;;;8.29;100.00
48668;BME280;34453;52.198;5.004;2023-03-20T11:23:06;101965.41;;;8.26;100.00
48668;BME280;34453;52.198;5.004;2023-03-20T11:25:51;101965.91;;;8.19;100.00
48668;BME280;34453;52.198;5.004;2023-03-20T11:33:35;101965.78;;;8.20;100.00
48668;BME280;34453;52.198;5.004;2023-03-20T11:36:09;101962.66;;;8.15;100.00
48668;BME280;34453;52.198;5.004;2023-03-20T11:38:43;101958.84;;;8.06;100.00
48668;BME280;34453;52.198;5.004;2023-03-20T11:41:23;101963.25;;;8.06;100.00
48668;BME280;34453;52.198;5.004;2023-03-20T11:43:48;101971.59;;;8.11;100.00
48668;BME280;34453;52.198;5.004;2023-03-20T11:46:15;101971.78;;;8.08;100.00
48668;BME280;34453;52.198;5.004;2023-03-20T11:49:04;101970.41;;;8.02;100.00
48668;BME280;34453;52.198;5.004;2023-03-20T11:51:30;101975.00;;;7.99;100.00
48668;BME280;34453;52.198;5.004;2023-03-20T11:54:05;101977.00;;;8.08;100.00
48668;BME280;34453;52.198;5.004;2023-03-20T11:56:34;101973.00;;;8.02;100.00
48668;BME280;34453;52.198;5.004;2023-03-20T11:59:14;101980.19;;;7.99;100.00
48668;BME280;34453;52.198;5.004;2023-03-20T12:01:45;101980.53;;;8.07;100.00
48668;BME280;34453;52.198;5.004;2023-03-20T12:04:34;101983.50;;;8.15;100.00
48668;BME280;34453;52.198;5.004;2023-03-20T12:15:00;101985.28;;;8.00;100.00
48668;BME280;34453;52.198;5.004;2023-03-20T12:24:21;101963.25;;;8.06;100.00
48668;BME280;34453;52.198;5.004;2023-03-20T12:32:29;101965.47;;;8.12;100.00
48668;BME280;34453;52.198;5.004;2023-03-20T12:35:06;101965.25;;;8.15;100.00
48668;BME280;34453;52.198;5.004;2023-03-20T12:37:35;101956.69;;;8.13;100.00
48668;BME280;34453;52.198;5.004;2023-03-20T12:40:01;101960.72;;;8.04;100.00
48668;BME280;34453;52.198;5.004;2023-03-20T12:42:32;101966.59;;;8.08;100.00
48668;BME280;34453;52.198;5.004;2023-03-20T12:50:40;101952.44;;;8.12;100.00
48668;BME280;34453;52.198;5.004;2023-03-20T12:58:40;101946.38;;;8.12;100.00
48668;BME280;34453;52.198;5.004;2023-03-20T13:01:28;101951.38;;;8.15;100.00
48668;BME280;34453;52.198;5.004;2023-03-20T13:06:54;101937.72;;;8.11;100.00
48668;BME280;34453;52.198;5.004;2023-03-20T13:15:15;101928.66;;;8.17;100.00
48668;BME280;34453;52.198;5.004;2023-03-20T13:17:59;101927.19;;;8.13;100.00
48668;BME280;34453;52.198;5.004;2023-03-20T13:20:53;101932.69;;;8.08;100.00
48668;BME280;34453;52.198;5.004;2023-03-20T13:33:51;101918.94;;;8.06;100.00
48668;BME280;34453;52.198;5.004;2023-03-20T13:36:55;101933.44;;;8.10;100.00
48668;BME280;34453;52.198;5.004;2023-03-20T13:39:32;101927.84;;;8.16;100.00
48668;BME280;34453;52.198;5.004;2023-03-20T13:42:03;101921.28;;;8.23;100.00
48668;BME280;34453;52.198;5.004;2023-03-20T13:44:31;101907.50;;;8.21;100.00
48668;BME280;34453;52.198;5.004;2023-03-20T13:47:01;101914.22;;;8.25;100.00
48668;BME280;34453;52.198;5.004;2023-03-20T13:49:59;101904.50;;;8.27;100.00
48668;BME280;34453;52.198;5.004;2023-03-20T13:52:34;101917.88;;;8.36;100.00
48668;BME280;34453;52.198;5.004;2023-03-20T13:58:12;101910.13;;;8.21;100.00
48668;BME280;34453;52.198;5.004;2023-03-20T14:01:46;101909.16;;;8.22;100.00
48668;BME280;34453;52.198;5.004;2023-03-20T14:03:47;101923.16;;;8.21;100.00
48668;BME280;34453;52.198;5.004;2023-03-20T14:08:55;101916.69;;;8.27;100.00
48668;BME280;34453;52.198;5.004;2023-03-20T14:11:25;101912.88;;;8.33;100.00
48668;BME280;34453;52.198;5.004;2023-03-20T14:14:03;101910.47;;;8.29;100.00
48668;BME280;34453;52.198;5.004;2023-03-20T14:16:31;101915.47;;;8.33;100.00
48668;BME280;34453;52.198;5.004;2023-03-20T14:19:06;101905.13;;;8.31;100.00
48668;BME280;34453;52.198;5.004;2023-03-20T14:21:34;101914.00;;;8.28;100.00
48668;BME280;34453;52.198;5.004;2023-03-20T14:24:09;101904.31;;;8.30;100.00
48668;BME280;34453;52.198;5.004;2023-03-20T14:26:38;101903.47;;;8.30;100.00
48668;BME280;34453;52.198;5.004;2023-03-20T14:31:36;101910.03;;;8.36;100.00
48668;BME280;34453;52.198;5.004;2023-03-20T14:45:17;101908.09;;;8.39;100.00
48668;BME280;34453;52.198;5.004;2023-03-20T14:47:50;101902.69;;;8.42;100.00
48668;BME280;34453;52.198;5.004;2023-03-20T14:50:33;101903.91;;;8.37;100.00
48668;BME280;34453;52.198;5.004;2023-03-20T14:53:34;101902.97;;;8.38;100.00
48668;BME280;34453;52.198;5.004;2023-03-20T14:56:12;101897.00;;;8.36;100.00
48668;BME280;34453;52.198;5.004;2023-03-20T14:58:45;101901.03;;;8.41;100.00
48668;BME280;34453;52.198;5.004;2023-03-20T15:01:27;101901.84;;;8.42;100.00
48668;BME280;34453;52.198;5.004;2023-03-20T15:04:09;101887.69;;;8.46;100.00
48668;BME280;34453;52.198;5.004;2023-03-20T15:07:35;101894.03;;;8.42;100.00
48668;BME280;34453;52.198;5.004;2023-03-20T15:09:47;101886.72;;;8.47;100.00
48668;BME280;34453;52.198;5.004;2023-03-20T15:12:18;101885.91;;;8.46;100.00
48668;BME280;34453;52.198;5.004;2023-03-20T15:14:50;101884.69;;;8.52;100.00
48668;BME280;34453;52.198;5.004;2023-03-20T15:17:21;101891.66;;;8.52;100.00
48668;BME280;34453;52.198;5.004;2023-03-20T15:19:48;101880.50;;;8.49;100.00
48668;BME280;34453;52.198;5.004;2023-03-20T15:22:17;101883.19;;;8.48;100.00
48668;BME280;34453;52.198;5.004;2023-03-20T15:24:50;101880.59;;;8.48;100.00
48668;BME280;34453;52.198;5.004;2023-03-20T15:27:16;101877.91;;;8.49;100.00
48668;BME280;34453;52.198;5.004;2023-03-20T15:29:49;101876.03;;;8.52;100.00
48668;BME280;34453;52.198;5.004;2023-03-20T15:32:15;101879.66;;;8.49;100.00
48668;BME280;34453;52.198;5.004;2023-03-20T15:34:43;101870.91;;;8.50;100.00